Airfield :
LOGIN :

Register | Disclaimer

   EN    FR    IT 

 










Legend :    VFR   Marginal VFR   IFR   Intensive IFR   Very Intensive IFR
Visi :
Ceiling :
>= 8 km
>= 3000ft
5 to 8 km
1000 to 3000 ft
1500m to 5 km
500 to 1000 ft
800 to 1500m
200 to 500 ft
< 800m
< 200 ft
Symbols :   Thunderstorms  Fog  Heavy snow  Heavy precipitations  Wind > 20 kt
SIGMETs :     Misc.  Thunderstorms  Icing  Turbulence  Mountain Waves  Volcanic Ashes







- Airport Elevation : 362 ft
- IATA code : WAW


EPWA - Warsaw Okecie

CURRENT METAR :
  • 231630Z 26013G23KT 220V290 9999 -RA BKN008 BKN018 08/07 Q0998 NOSIG

EXPIRED METARs :
  • 231600Z 26014G24KT 220V280 9999 -RA BKN009 BKN018 08/06 Q0999 NOSIG
  • 231530Z 25013G24KT 230V300 9999 -RA BKN010 BKN018 08/06 Q0999 NOSIG
  • 231500Z 25012KT 200V280 9999 -RA BKN010 BKN018 07/06 Q0999 TEMPO RA
  • 231430Z 25012G22KT 210V280 9999 -RA BKN011 BKN020 07/06 Q1000 TEMPO RA
  • 231400Z 24012G22KT 200V280 9999 -RA BKN013 07/06 Q1001 TEMPO RA

TAF TAF EPWA
Valid from the 23 at 15:00 until the 24 at 15:00 UTC


231430Z 2315/2415 24015G25KT 9999 -RA BKN010 OVC015
TEMPO 2315/2324 26025G38KT 4000 RA BKN007
PROB40
TEMPO 2315/2316 2000 +RA
PROB30
TEMPO 2317/2324 SHRA BKN010CB
BECMG 2323/2401 32015G28KT BKN025
TEMPO 2400/2409 33023G38KT 4000 SHRA SCT006 BKN010CB
TEMPO 2409/2415 33023G38KT
No reported NOTAMs for that airfield.
1 SIGMET reported for the Warszawa FIR (EPWW) :
 
Severe turbulence
EPWW SIGMET 3 VALID 231555/231955 EPWA
EPWW WARSAW FIR SEV TURB FCST ENTIRE FIR SFC/FL080 MOV SE NC=



MET'MAP, your aeronautical weather chart ! - Copyright ORBIFLY December 2007 - Disclaimer

ORBIFLY MET'MAP TEAM :

Programming & Development : Alexandra Zaïnal
Concept & Development : Baudouin d'Aumeries
Co-Development & Prog : Marc-Olivier Méhu
Technical & hardware support : Manuel Goepfert

Contact : metmap@orbifly.com




SOURCES & CREDITS :

   NOAA